Cheapside, Texas
Current Conditions -  °F | °C
As of 4:51 AM on Thursday 23 Oct 2014 (Local Time) from KVCT Reporting Station
Haze Haze  
Wind Chill: 61°   Ceiling: Unl
Heat Index: 61°   Visibility: 5mi
Dew Point: 58°   Wind: 3mph
Humidity: 90%   Direction: 70°ENE
Pressure: 30.05"   Gusts: NA
Location:  29.0941°N, 97.191°W
Report Text: KVCT 230951Z AUTO 07003KT 5SM BR CLR 16/14 A3005 RMK AO2 SLP174 T01610144
Loading
Personal Weather Stations






























Interactive Weather Map
Tropical Storm Tracking
New forecast layout! Learn more

10-Day Weather Forecast

Advertisements
Track Severe Weather on mobile